createdAt,value
2019-02-24T00:00:11.928Z,926.29
2019-02-24T00:00:25.930Z,926.29
2019-02-24T00:00:38.939Z,926.3
2019-02-24T00:00:51.947Z,926.29
2019-02-24T00:01:04.979Z,926.29
2019-02-24T00:01:18.027Z,926.29
2019-02-24T00:01:31.007Z,926.28
2019-02-24T00:01:43.999Z,926.3
2019-02-24T00:01:57.070Z,926.3
2019-02-24T00:02:10.087Z,926.27
2019-02-24T00:02:23.105Z,926.32
2019-02-24T00:02:36.151Z,926.3
2019-02-24T00:02:49.184Z,926.28
2019-02-24T00:03:02.229Z,926.3
2019-02-24T00:03:15.219Z,926.3
2019-02-24T00:03:28.217Z,926.33
2019-02-24T00:03:41.297Z,926.32
2019-02-24T00:03:55.808Z,926.3
2019-02-24T00:04:08.866Z,926.3
2019-02-24T00:04:21.920Z,926.3
2019-02-24T00:04:34.901Z,926.29
2019-02-24T00:04:47.887Z,926.32
2019-02-24T00:05:00.899Z,926.32
2019-02-24T00:05:13.827Z,926.32
2019-02-24T00:05:26.961Z,926.32
2019-02-24T00:05:39.958Z,926.32
2019-02-24T00:05:52.604Z,926.33
2019-02-24T00:06:05.550Z,926.36
2019-02-24T00:06:18.521Z,926.32
2019-02-24T00:06:31.648Z,926.32
2019-02-24T00:06:44.619Z,926.38
2019-02-24T00:06:57.603Z,926.35
2019-02-24T00:07:10.627Z,926.34
2019-02-24T00:07:23.646Z,926.36
2019-02-24T00:07:36.646Z,926.4
2019-02-24T00:07:49.639Z,926.38
2019-02-24T00:08:02.633Z,926.41
2019-02-24T00:08:16.462Z,926.4
2019-02-24T00:08:29.478Z,926.37
2019-02-24T00:08:42.528Z,926.39
2019-02-24T00:08:55.504Z,926.37
2019-02-24T00:09:08.547Z,926.37
2019-02-24T00:09:21.596Z,926.37
2019-02-24T00:09:34.659Z,926.37
2019-02-24T00:09:47.176Z,926.35
2019-02-24T00:10:00.223Z,926.36
2019-02-24T00:10:13.365Z,926.38
2019-02-24T00:10:26.291Z,926.35
2019-02-24T00:10:39.290Z,926.38
2019-02-24T00:10:52.319Z,926.37
2019-02-24T00:11:05.309Z,926.35
2019-02-24T00:11:19.843Z,926.35
2019-02-24T00:11:32.865Z,926.35
2019-02-24T00:11:45.831Z,926.36
2019-02-24T00:11:58.871Z,926.37
2019-02-24T00:12:11.845Z,926.36
2019-02-24T00:12:24.920Z,926.35
2019-02-24T00:12:37.951Z,926.38
2019-02-24T00:12:50.931Z,926.34
2019-02-24T00:13:03.917Z,926.37
2019-02-24T00:13:16.939Z,926.38
2019-02-24T00:13:29.889Z,926.4
2019-02-24T00:13:42.892Z,926.39
2019-02-24T00:13:55.844Z,926.39
2019-02-24T00:14:08.817Z,926.42
2019-02-24T00:14:21.391Z,926.39
2019-02-24T00:14:34.452Z,926.4
2019-02-24T00:14:47.408Z,926.39
2019-02-24T00:15:00.410Z,926.42
2019-02-24T00:15:13.396Z,926.44
2019-02-24T00:15:26.020Z,926.42
2019-02-24T00:15:39.024Z,926.42
2019-02-24T00:15:52.066Z,926.43
2019-02-24T00:16:05.049Z,926.41
2019-02-24T00:16:18.119Z,926.45
2019-02-24T00:16:31.144Z,926.44
2019-02-24T00:16:44.182Z,926.43
2019-02-24T00:16:57.206Z,926.41
2019-02-24T00:17:10.208Z,926.44
2019-02-24T00:17:23.143Z,926.42
2019-02-24T00:17:36.214Z,926.45
2019-02-24T00:17:49.190Z,926.45
2019-02-24T00:18:02.121Z,926.44
2019-02-24T00:18:15.189Z,926.45
2019-02-24T00:18:28.256Z,926.46
2019-02-24T00:18:41.240Z,926.44
2019-02-24T00:18:54.233Z,926.43
2019-02-24T00:19:07.902Z,926.44
2019-02-24T00:19:20.883Z,926.45
2019-02-24T00:19:33.863Z,926.42
2019-02-24T00:19:46.866Z,926.43
2019-02-24T00:19:59.774Z,926.43
2019-02-24T00:20:12.225Z,926.4
2019-02-24T00:20:25.312Z,926.41
2019-02-24T00:20:38.368Z,926.41
2019-02-24T00:20:51.385Z,926.41
2019-02-24T00:21:04.448Z,926.38
2019-02-24T00:21:17.416Z,926.39
2019-02-24T00:21:30.055Z,926.38
2019-02-24T00:21:43.106Z,926.39
2019-02-24T00:21:55.642Z,926.39
2019-02-24T00:22:08.569Z,926.41
2019-02-24T00:22:21.542Z,926.41
2019-02-24T00:22:34.581Z,926.4
2019-02-24T00:22:47.572Z,926.37
2019-02-24T00:23:00.652Z,926.35
2019-02-24T00:23:13.675Z,926.35
2019-02-24T00:23:27.358Z,926.35
2019-02-24T00:23:40.401Z,926.36
2019-02-24T00:23:53.421Z,926.35
2019-02-24T00:24:06.392Z,926.34
2019-02-24T00:24:19.359Z,926.35
2019-02-24T00:24:32.351Z,926.35
2019-02-24T00:24:45.323Z,926.36
2019-02-24T00:24:58.329Z,926.34
2019-02-24T00:25:11.289Z,926.36
2019-02-24T00:25:24.284Z,926.33
2019-02-24T00:25:37.325Z,926.35
2019-02-24T00:25:50.362Z,926.33
2019-02-24T00:26:04.679Z,926.31
2019-02-24T00:26:17.770Z,926.35
2019-02-24T00:26:30.786Z,926.33
2019-02-24T00:26:43.797Z,926.29
2019-02-24T00:26:56.872Z,926.31
2019-02-24T00:27:09.898Z,926.33
2019-02-24T00:27:22.920Z,926.34
2019-02-24T00:27:35.957Z,926.29
2019-02-24T00:27:48.993Z,926.29
2019-02-24T00:28:11.003Z,926.28
2019-02-24T00:28:24.032Z,926.28
2019-02-24T00:28:37.021Z,926.25
2019-02-24T00:28:50.107Z,926.27
2019-02-24T00:29:03.115Z,926.29
2019-02-24T00:29:16.050Z,926.26
2019-02-24T00:29:29.056Z,926.25
2019-02-24T00:29:42.032Z,926.24
2019-02-24T00:29:54.993Z,926.27
2019-02-24T00:30:07.986Z,926.27
2019-02-24T00:30:20.946Z,926.3
2019-02-24T00:30:33.909Z,926.29
2019-02-24T00:30:46.968Z,926.26
2019-02-24T00:31:00.032Z,926.28
2019-02-24T00:31:13.094Z,926.25
2019-02-24T00:31:25.732Z,926.26
2019-02-24T00:31:38.661Z,926.25
2019-02-24T00:31:51.675Z,926.25
2019-02-24T00:32:04.675Z,926.27
2019-02-24T00:32:17.760Z,926.24
2019-02-24T00:32:30.780Z,926.23
2019-02-24T00:32:44.563Z,926.23
2019-02-24T00:32:57.604Z,926.23
2019-02-24T00:33:10.599Z,926.23
2019-02-24T00:33:23.750Z,926.22
2019-02-24T00:33:36.741Z,926.22
2019-02-24T00:33:49.797Z,926.21
2019-02-24T00:34:02.850Z,926.24
2019-02-24T00:34:15.840Z,926.24
2019-02-24T00:34:28.821Z,926.22
2019-02-24T00:34:41.807Z,926.23
2019-02-24T00:34:54.781Z,926.22
2019-02-24T00:35:07.826Z,926.18
2019-02-24T00:35:20.274Z,926.22
2019-02-24T00:35:33.260Z,926.21
2019-02-24T00:35:46.192Z,926.23
2019-02-24T00:35:59.189Z,926.23
2019-02-24T00:36:12.116Z,926.2
2019-02-24T00:36:25.119Z,926.22
2019-02-24T00:36:38.037Z,926.21
2019-02-24T00:36:51.026Z,926.23
2019-02-24T00:37:04.075Z,926.21
2019-02-24T00:37:17.042Z,926.21
2019-02-24T00:37:30.109Z,926.22
2019-02-24T00:37:43.162Z,926.23
2019-02-24T00:37:56.114Z,926.21
2019-02-24T00:38:09.194Z,926.24
2019-02-24T00:38:22.143Z,926.21
2019-02-24T00:38:35.759Z,926.2
2019-02-24T00:38:48.779Z,926.21
2019-02-24T00:39:01.907Z,926.21
2019-02-24T00:39:14.938Z,926.22
2019-02-24T00:39:27.907Z,926.22
2019-02-24T00:39:40.874Z,926.23
2019-02-24T00:39:53.817Z,926.21
2019-02-24T00:40:06.823Z,926.23
2019-02-24T00:40:19.839Z,926.2
2019-02-24T00:40:32.755Z,926.21
2019-02-24T00:40:45.774Z,926.23
2019-02-24T00:40:58.846Z,926.21
2019-02-24T00:41:11.850Z,926.2
2019-02-24T00:41:24.793Z,926.25
2019-02-24T00:41:37.344Z,926.2
2019-02-24T00:41:50.346Z,926.2
2019-02-24T00:42:03.416Z,926.23
2019-02-24T00:42:16.407Z,926.23
2019-02-24T00:42:29.415Z,926.19
2019-02-24T00:42:42.504Z,926.19
2019-02-24T00:42:55.527Z,926.2
2019-02-24T00:43:08.545Z,926.19
2019-02-24T00:43:21.590Z,926.21
2019-02-24T00:43:34.733Z,926.21
2019-02-24T00:43:47.764Z,926.23
2019-02-24T00:44:00.811Z,926.17
2019-02-24T00:44:13.788Z,926.22
2019-02-24T00:44:26.819Z,926.2
2019-02-24T00:44:39.904Z,926.24
2019-02-24T00:44:52.948Z,926.23
2019-02-24T00:45:05.963Z,926.24
2019-02-24T00:45:18.910Z,926.21
2019-02-24T00:45:31.916Z,926.26
2019-02-24T00:45:44.907Z,926.24
2019-02-24T00:45:57.902Z,926.24
2019-02-24T00:46:10.858Z,926.24
2019-02-24T00:46:23.922Z,926.27
2019-02-24T00:46:36.948Z,926.27
2019-02-24T00:46:49.991Z,926.26
2019-02-24T00:47:02.983Z,926.3
2019-02-24T00:47:15.916Z,926.24
2019-02-24T00:47:28.821Z,926.23
2019-02-24T00:47:41.386Z,926.27
2019-02-24T00:47:54.358Z,926.28
2019-02-24T00:48:07.433Z,926.3
2019-02-24T00:48:20.419Z,926.28
2019-02-24T00:48:33.388Z,926.3
2019-02-24T00:48:46.418Z,926.29
2019-02-24T00:48:59.415Z,926.32
2019-02-24T00:49:12.367Z,926.31
2019-02-24T00:49:25.494Z,926.35
2019-02-24T00:49:38.504Z,926.32
2019-02-24T00:49:51.615Z,926.36
2019-02-24T00:50:04.605Z,926.38
2019-02-24T00:50:17.645Z,926.39
2019-02-24T00:50:30.192Z,926.4
2019-02-24T00:50:43.205Z,926.42
2019-02-24T00:50:56.320Z,926.39
2019-02-24T00:51:08.886Z,926.4
2019-02-24T00:51:21.441Z,926.42
2019-02-24T00:51:34.438Z,926.45
2019-02-24T00:51:47.493Z,926.43
2019-02-24T00:52:00.492Z,926.43
2019-02-24T00:52:13.496Z,926.45
2019-02-24T00:52:26.480Z,926.45
2019-02-24T00:52:39.467Z,926.45
2019-02-24T00:52:52.407Z,926.46
2019-02-24T00:53:05.386Z,926.44
2019-02-24T00:53:18.369Z,926.49
2019-02-24T00:53:31.985Z,926.51
2019-02-24T00:53:45.037Z,926.48
2019-02-24T00:53:58.050Z,926.48
2019-02-24T00:54:10.968Z,926.48
2019-02-24T00:54:23.968Z,926.49
2019-02-24T00:54:36.939Z,926.48
2019-02-24T00:54:50.008Z,926.47
2019-02-24T00:55:02.991Z,926.43
2019-02-24T00:55:16.064Z,926.48
2019-02-24T00:55:30.622Z,926.46
2019-02-24T00:55:43.697Z,926.45
2019-02-24T00:55:56.750Z,926.41
2019-02-24T00:56:09.797Z,926.4
2019-02-24T00:56:22.820Z,926.39
2019-02-24T00:56:35.802Z,926.39
2019-02-24T00:56:48.891Z,926.35
2019-02-24T00:57:01.949Z,926.3
2019-02-24T00:57:15.015Z,926.3
2019-02-24T00:57:27.978Z,926.35
2019-02-24T00:57:40.962Z,926.32
2019-02-24T00:57:53.910Z,926.31
2019-02-24T00:58:15.703Z,926.29
2019-02-24T00:58:28.523Z,926.27
2019-02-24T00:58:41.562Z,926.25
2019-02-24T00:58:54.617Z,926.23
2019-02-24T00:59:07.199Z,926.24
2019-02-24T00:59:20.226Z,926.24
2019-02-24T00:59:33.235Z,926.24
2019-02-24T00:59:46.304Z,926.22
2019-02-24T00:59:59.310Z,926.28
2019-02-24T01:00:12.358Z,926.27
2019-02-24T01:00:25.420Z,926.25
2019-02-24T01:00:38.422Z,926.28
2019-02-24T01:00:51.430Z,926.28
2019-02-24T01:01:04.497Z,926.26
2019-02-24T01:01:17.515Z,926.25
2019-02-24T01:01:30.519Z,926.29
2019-02-24T01:01:43.478Z,926.27
2019-02-24T01:01:56.475Z,926.26
2019-02-24T01:02:09.994Z,926.26
2019-02-24T01:02:22.959Z,926.26
2019-02-24T01:02:35.965Z,926.22
2019-02-24T01:02:48.982Z,926.23
2019-02-24T01:03:01.982Z,926.22
2019-02-24T01:03:14.964Z,926.22
2019-02-24T01:03:28.031Z,926.2
2019-02-24T01:03:41.090Z,926.17
2019-02-24T01:03:54.075Z,926.19
2019-02-24T01:04:07.101Z,926.18
2019-02-24T01:04:20.129Z,926.18
2019-02-24T01:04:33.089Z,926.17
2019-02-24T01:04:46.124Z,926.21
2019-02-24T01:04:59.194Z,926.15
2019-02-24T01:05:12.157Z,926.14
2019-02-24T01:05:25.197Z,926.19
2019-02-24T01:05:38.206Z,926.18
2019-02-24T01:05:50.773Z,926.19
2019-02-24T01:06:03.827Z,926.16
2019-02-24T01:06:16.812Z,926.18
2019-02-24T01:06:29.728Z,926.19
2019-02-24T01:06:42.676Z,926.17
2019-02-24T01:06:55.694Z,926.18
2019-02-24T01:07:08.731Z,926.19
2019-02-24T01:07:21.788Z,926.16
2019-02-24T01:07:34.685Z,926.19
2019-02-24T01:07:47.801Z,926.21
2019-02-24T01:08:00.781Z,926.18
2019-02-24T01:08:13.301Z,926.17
2019-02-24T01:08:26.256Z,926.19
2019-02-24T01:08:40.152Z,926.19
2019-02-24T01:08:53.071Z,926.16
2019-02-24T01:09:06.026Z,926.21
2019-02-24T01:09:19.084Z,926.24
2019-02-24T01:09:32.108Z,926.24
2019-02-24T01:09:45.074Z,926.24
2019-02-24T01:09:57.990Z,926.25
2019-02-24T01:10:10.979Z,926.3
2019-02-24T01:10:23.986Z,926.26
2019-02-24T01:10:36.992Z,926.28
2019-02-24T01:10:50.027Z,926.3
2019-02-24T01:11:02.964Z,926.29
2019-02-24T01:11:15.946Z,926.29
2019-02-24T01:11:28.935Z,926.33
2019-02-24T01:11:41.928Z,926.31
2019-02-24T01:11:54.985Z,926.38
2019-02-24T01:12:08.122Z,926.36
2019-02-24T01:12:21.071Z,926.37
2019-02-24T01:12:34.007Z,926.33
2019-02-24T01:12:46.920Z,926.38
2019-02-24T01:12:59.943Z,926.35
2019-02-24T01:13:12.985Z,926.35
2019-02-24T01:13:25.980Z,926.37
2019-02-24T01:13:39.067Z,926.34
2019-02-24T01:13:53.943Z,926.34
2019-02-24T01:14:07.065Z,926.34
2019-02-24T01:14:20.088Z,926.35
2019-02-24T01:14:33.053Z,926.34
2019-02-24T01:14:46.132Z,926.32
2019-02-24T01:14:59.117Z,926.35
2019-02-24T01:15:12.082Z,926.33
2019-02-24T01:15:25.089Z,926.34
2019-02-24T01:15:37.184Z,926.31
2019-02-24T01:15:50.193Z,926.34
2019-02-24T01:16:03.202Z,926.31
2019-02-24T01:16:16.207Z,926.28
2019-02-24T01:16:29.237Z,926.31
2019-02-24T01:16:42.302Z,926.31
2019-02-24T01:16:55.217Z,926.28
2019-02-24T01:17:07.721Z,926.29
2019-02-24T01:17:20.246Z,926.3
2019-02-24T01:17:33.291Z,926.26
2019-02-24T01:17:46.314Z,926.27
2019-02-24T01:17:59.331Z,926.25
2019-02-24T01:18:12.344Z,926.24
2019-02-24T01:18:25.354Z,926.25
2019-02-24T01:18:38.305Z,926.21
2019-02-24T01:18:51.330Z,926.25
2019-02-24T01:19:04.299Z,926.23
2019-02-24T01:19:17.219Z,926.23
2019-02-24T01:19:30.215Z,926.22
2019-02-24T01:19:43.198Z,926.22
2019-02-24T01:19:56.183Z,926.23
2019-02-24T01:20:09.189Z,926.25
2019-02-24T01:20:22.154Z,926.24
2019-02-24T01:20:35.183Z,926.29
2019-02-24T01:20:48.280Z,926.28
2019-02-24T01:21:01.364Z,926.26
2019-02-24T01:21:14.391Z,926.26
2019-02-24T01:21:27.360Z,926.26
2019-02-24T01:21:40.377Z,926.28
2019-02-24T01:21:53.429Z,926.28
2019-02-24T01:22:06.453Z,926.28
2019-02-24T01:22:19.523Z,926.29
2019-02-24T01:22:32.565Z,926.26
2019-02-24T01:22:45.606Z,926.29
2019-02-24T01:22:58.583Z,926.28
2019-02-24T01:23:11.617Z,926.27
2019-02-24T01:23:24.606Z,926.27
2019-02-24T01:23:37.550Z,926.26
2019-02-24T01:23:51.212Z,926.29
2019-02-24T01:24:04.261Z,926.31
2019-02-24T01:24:17.288Z,926.28
2019-02-24T01:24:30.327Z,926.3
2019-02-24T01:24:43.376Z,926.29
2019-02-24T01:24:56.374Z,926.3
2019-02-24T01:25:09.318Z,926.31
2019-02-24T01:25:22.331Z,926.32
2019-02-24T01:25:35.386Z,926.3
2019-02-24T01:25:48.408Z,926.32
2019-02-24T01:26:01.402Z,926.3
2019-02-24T01:26:14.472Z,926.28
2019-02-24T01:26:27.474Z,926.27
2019-02-24T01:26:40.499Z,926.27
2019-02-24T01:26:53.524Z,926.23
2019-02-24T01:27:06.483Z,926.24
2019-02-24T01:27:19.470Z,926.21
2019-02-24T01:27:32.530Z,926.19
2019-02-24T01:27:45.626Z,926.2
2019-02-24T01:27:58.659Z,926.17
2019-02-24T01:28:11.690Z,926.16
2019-02-24T01:28:32.285Z,926.18
2019-02-24T01:28:45.492Z,926.21
2019-02-24T01:28:58.574Z,926.2
2019-02-24T01:29:11.123Z,926.17
2019-02-24T01:29:24.174Z,926.15
2019-02-24T01:29:37.249Z,926.16
2019-02-24T01:29:50.322Z,926.19
2019-02-24T01:30:03.404Z,926.16
2019-02-24T01:30:16.372Z,926.19
2019-02-24T01:30:29.392Z,926.15
2019-02-24T01:30:41.958Z,926.18
2019-02-24T01:30:54.885Z,926.18
2019-02-24T01:31:07.404Z,926.16
2019-02-24T01:31:20.452Z,926.18
2019-02-24T01:31:33.431Z,926.22
2019-02-24T01:31:46.459Z,926.2
2019-02-24T01:31:59.479Z,926.18
2019-02-24T01:32:12.542Z,926.22
2019-02-24T01:32:25.571Z,926.22
2019-02-24T01:32:38.616Z,926.18
2019-02-24T01:32:51.618Z,926.16
2019-02-24T01:33:04.657Z,926.21
2019-02-24T01:33:17.695Z,926.18
2019-02-24T01:33:30.687Z,926.15
2019-02-24T01:33:43.645Z,926.2
2019-02-24T01:33:56.617Z,926.18
2019-02-24T01:34:09.618Z,926.13
2019-02-24T01:34:22.701Z,926.17
2019-02-24T01:34:35.736Z,926.14
2019-02-24T01:34:48.745Z,926.11
2019-02-24T01:35:01.793Z,926.1
2019-02-24T01:35:14.851Z,926.09
2019-02-24T01:35:27.908Z,926.1
2019-02-24T01:35:40.464Z,926.1
2019-02-24T01:35:53.476Z,926.09
2019-02-24T01:36:06.519Z,926.07
2019-02-24T01:36:19.621Z,926.09
2019-02-24T01:36:32.591Z,926.1
2019-02-24T01:36:45.605Z,926.09
2019-02-24T01:36:58.606Z,926.11
2019-02-24T01:37:11.652Z,926.09
2019-02-24T01:37:24.622Z,926.12
2019-02-24T01:37:37.608Z,926.08
2019-02-24T01:37:50.566Z,926.12
2019-02-24T01:38:03.162Z,926.11
2019-02-24T01:38:16.191Z,926.09
2019-02-24T01:38:29.203Z,926.12
2019-02-24T01:38:41.274Z,926.11
2019-02-24T01:38:54.487Z,926.11
2019-02-24T01:39:07.493Z,926.14
2019-02-24T01:39:20.452Z,926.15
2019-02-24T01:39:33.446Z,926.14
2019-02-24T01:39:46.465Z,926.16
2019-02-24T01:39:59.380Z,926.17
2019-02-24T01:40:12.351Z,926.15
2019-02-24T01:40:25.487Z,926.16
2019-02-24T01:40:38.551Z,926.16
2019-02-24T01:40:51.570Z,926.16
2019-02-24T01:41:04.612Z,926.15
2019-02-24T01:41:17.631Z,926.16
2019-02-24T01:41:30.594Z,926.17
2019-02-24T01:41:43.621Z,926.14
2019-02-24T01:41:56.605Z,926.12
2019-02-24T01:42:09.689Z,926.14
2019-02-24T01:42:22.704Z,926.13
2019-02-24T01:42:35.698Z,926.11
2019-02-24T01:42:48.740Z,926.13
2019-02-24T01:43:01.737Z,926.1
2019-02-24T01:43:14.763Z,926.09
2019-02-24T01:43:27.760Z,926.08
2019-02-24T01:43:40.769Z,926.06
2019-02-24T01:43:53.823Z,926.07
2019-02-24T01:44:06.824Z,926.06
2019-02-24T01:44:19.808Z,926.07
2019-02-24T01:44:32.893Z,926.08
2019-02-24T01:44:45.925Z,926.09
2019-02-24T01:44:58.959Z,926.06
2019-02-24T01:45:12.038Z,926.09
2019-02-24T01:45:25.043Z,926.09
2019-02-24T01:45:37.989Z,926.08
2019-02-24T01:45:51.034Z,926.06
2019-02-24T01:46:04.023Z,926.09
2019-02-24T01:46:17.053Z,926.12
2019-02-24T01:46:30.092Z,926.09
2019-02-24T01:46:43.223Z,926.07
2019-02-24T01:46:56.278Z,926.09
2019-02-24T01:47:09.289Z,926.09
2019-02-24T01:47:21.826Z,926.08
2019-02-24T01:47:34.796Z,926.08
2019-02-24T01:47:47.813Z,926.08
2019-02-24T01:48:00.829Z,926.07
2019-02-24T01:48:13.861Z,926.09
2019-02-24T01:48:28.217Z,926.08
2019-02-24T01:48:40.802Z,926.07
2019-02-24T01:48:53.764Z,926.07
2019-02-24T01:49:06.716Z,926.1
2019-02-24T01:49:19.736Z,926.08
2019-02-24T01:49:32.738Z,926.09
2019-02-24T01:49:45.767Z,926.06
2019-02-24T01:49:58.733Z,926.07
2019-02-24T01:50:11.764Z,926.06
2019-02-24T01:50:24.702Z,926.02
2019-02-24T01:50:37.778Z,926.08
2019-02-24T01:50:50.794Z,926.08
2019-02-24T01:51:03.828Z,926.04
2019-02-24T01:51:16.785Z,926.06
2019-02-24T01:51:29.755Z,926.02
2019-02-24T01:51:42.832Z,926.02
2019-02-24T01:51:55.414Z,926.04
2019-02-24T01:52:08.430Z,926
2019-02-24T01:52:21.419Z,926
2019-02-24T01:52:34.419Z,926.01
2019-02-24T01:52:47.482Z,926.02
2019-02-24T01:53:00.484Z,926.02
2019-02-24T01:53:13.463Z,926.01
2019-02-24T01:53:26.439Z,926.02
2019-02-24T01:53:39.434Z,926.01
2019-02-24T01:53:52.525Z,926
2019-02-24T01:54:06.275Z,926.02
2019-02-24T01:54:19.255Z,926.03
2019-02-24T01:54:32.238Z,926.01
2019-02-24T01:54:45.338Z,926.04
2019-02-24T01:54:58.399Z,926
2019-02-24T01:55:11.418Z,926.01
2019-02-24T01:55:24.408Z,926.02
2019-02-24T01:55:37.418Z,926
2019-02-24T01:55:50.420Z,926
2019-02-24T01:56:03.357Z,925.99
2019-02-24T01:56:16.361Z,926.01
2019-02-24T01:56:28.920Z,925.97
2019-02-24T01:56:41.972Z,925.97
2019-02-24T01:56:54.882Z,925.98
2019-02-24T01:57:07.906Z,925.95
2019-02-24T01:57:20.960Z,925.93
2019-02-24T01:57:33.934Z,925.92
2019-02-24T01:57:46.942Z,925.95
2019-02-24T01:57:59.934Z,925.92
2019-02-24T01:58:12.858Z,925.91
2019-02-24T01:58:34.510Z,925.91
2019-02-24T01:58:48.014Z,925.91
2019-02-24T01:59:00.527Z,925.88
2019-02-24T01:59:13.520Z,925.91
2019-02-24T01:59:26.605Z,925.89
2019-02-24T01:59:39.548Z,925.89
2019-02-24T01:59:52.568Z,925.9
2019-02-24T02:00:05.583Z,925.9
2019-02-24T02:00:18.516Z,925.89
2019-02-24T02:00:31.481Z,925.88
2019-02-24T02:00:44.576Z,925.86
2019-02-24T02:00:57.597Z,925.87
2019-02-24T02:01:10.631Z,925.85
2019-02-24T02:01:23.655Z,925.86
2019-02-24T02:01:36.695Z,925.9
2019-02-24T02:01:49.636Z,925.89
2019-02-24T02:02:02.685Z,925.87
2019-02-24T02:02:15.720Z,925.88
2019-02-24T02:02:28.740Z,925.88
2019-02-24T02:02:41.669Z,925.88
2019-02-24T02:02:54.547Z,925.87
2019-02-24T02:03:07.535Z,925.9
2019-02-24T02:03:20.592Z,925.91
2019-02-24T02:03:33.607Z,925.86
2019-02-24T02:03:46.634Z,925.86
2019-02-24T02:03:59.679Z,925.89
2019-02-24T02:04:12.692Z,925.86
2019-02-24T02:04:25.648Z,925.89
2019-02-24T02:04:38.696Z,925.86
2019-02-24T02:04:51.753Z,925.89
2019-02-24T02:05:05.610Z,925.88
2019-02-24T02:05:18.634Z,925.9
2019-02-24T02:05:31.658Z,925.87
2019-02-24T02:05:44.761Z,925.89
2019-02-24T02:05:57.730Z,925.86
2019-02-24T02:06:10.770Z,925.86
2019-02-24T02:06:23.757Z,925.87
2019-02-24T02:06:36.657Z,925.85
2019-02-24T02:06:49.584Z,925.86
2019-02-24T02:07:02.593Z,925.88
2019-02-24T02:07:15.607Z,925.86
2019-02-24T02:07:28.629Z,925.87
2019-02-24T02:07:41.578Z,925.89
2019-02-24T02:07:54.595Z,925.87
2019-02-24T02:08:07.590Z,925.85
2019-02-24T02:08:20.601Z,925.86
2019-02-24T02:08:33.619Z,925.86
2019-02-24T02:08:46.642Z,925.83
2019-02-24T02:09:00.368Z,925.85
2019-02-24T02:09:13.302Z,925.88
2019-02-24T02:09:26.311Z,925.86
2019-02-24T02:09:39.344Z,925.86
2019-02-24T02:09:52.337Z,925.84
2019-02-24T02:10:05.303Z,925.83
2019-02-24T02:10:18.259Z,925.84
2019-02-24T02:10:31.343Z,925.86
2019-02-24T02:10:44.401Z,925.88
2019-02-24T02:10:57.402Z,925.84
2019-02-24T02:11:10.468Z,925.84
2019-02-24T02:11:23.463Z,925.82
2019-02-24T02:11:36.400Z,925.8
2019-02-24T02:11:49.370Z,925.87
2019-02-24T02:12:02.413Z,925.83
2019-02-24T02:12:15.342Z,925.85
2019-02-24T02:12:28.304Z,925.83
2019-02-24T02:12:41.346Z,925.81
2019-02-24T02:12:54.371Z,925.83
2019-02-24T02:13:07.529Z,925.85
2019-02-24T02:13:20.557Z,925.79
2019-02-24T02:13:33.545Z,925.82
2019-02-24T02:13:46.635Z,925.81
2019-02-24T02:13:59.651Z,925.8
2019-02-24T02:14:12.669Z,925.81
2019-02-24T02:14:25.701Z,925.85
2019-02-24T02:14:38.724Z,925.82
2019-02-24T02:14:51.673Z,925.83
2019-02-24T02:15:04.708Z,925.83
2019-02-24T02:15:17.733Z,925.84
2019-02-24T02:15:30.735Z,925.81
2019-02-24T02:15:43.275Z,925.79
2019-02-24T02:15:55.776Z,925.78
2019-02-24T02:16:08.739Z,925.81
2019-02-24T02:16:21.763Z,925.84
2019-02-24T02:16:34.719Z,925.79
2019-02-24T02:16:47.740Z,925.81
2019-02-24T02:17:00.843Z,925.84
2019-02-24T02:17:13.813Z,925.84
2019-02-24T02:17:26.896Z,925.83
2019-02-24T02:17:39.924Z,925.8
2019-02-24T02:17:52.947Z,925.82
2019-02-24T02:18:05.976Z,925.8
2019-02-24T02:18:19.065Z,925.8
2019-02-24T02:18:32.088Z,925.81
2019-02-24T02:18:45.112Z,925.8
2019-02-24T02:18:58.093Z,925.77
2019-02-24T02:19:11.111Z,925.79
2019-02-24T02:19:24.069Z,925.78
2019-02-24T02:19:37.045Z,925.76
2019-02-24T02:19:50.052Z,925.79
2019-02-24T02:20:03.119Z,925.77
2019-02-24T02:20:16.107Z,925.75
2019-02-24T02:20:29.110Z,925.77
2019-02-24T02:20:42.121Z,925.76
2019-02-24T02:20:55.137Z,925.77
2019-02-24T02:21:08.220Z,925.77
2019-02-24T02:21:21.158Z,925.72
2019-02-24T02:21:34.172Z,925.75
2019-02-24T02:21:47.111Z,925.76
2019-02-24T02:22:00.114Z,925.76
2019-02-24T02:22:13.098Z,925.73
2019-02-24T02:22:26.113Z,925.72
2019-02-24T02:22:39.175Z,925.71
2019-02-24T02:22:52.191Z,925.73
2019-02-24T02:23:04.800Z,925.7
2019-02-24T02:23:17.764Z,925.73
2019-02-24T02:23:30.691Z,925.69
2019-02-24T02:23:43.566Z,925.68
2019-02-24T02:23:56.588Z,925.68
2019-02-24T02:24:10.628Z,925.68
2019-02-24T02:24:23.647Z,925.7
2019-02-24T02:24:36.738Z,925.69
2019-02-24T02:24:49.848Z,925.69
2019-02-24T02:25:02.760Z,925.68
2019-02-24T02:25:15.754Z,925.69
2019-02-24T02:25:28.757Z,925.7
2019-02-24T02:25:41.767Z,925.71
2019-02-24T02:25:54.749Z,925.66
2019-02-24T02:26:07.727Z,925.65
2019-02-24T02:26:20.743Z,925.65
2019-02-24T02:26:33.783Z,925.64
2019-02-24T02:26:46.847Z,925.61
2019-02-24T02:26:59.792Z,925.61
2019-02-24T02:27:12.902Z,925.65
2019-02-24T02:27:25.835Z,925.6
2019-02-24T02:27:38.834Z,925.62
2019-02-24T02:27:51.361Z,925.65
2019-02-24T02:28:04.372Z,925.63
2019-02-24T02:28:17.387Z,925.65
2019-02-24T02:28:30.370Z,925.63
2019-02-24T02:28:50.978Z,925.64
2019-02-24T02:29:03.961Z,925.63
2019-02-24T02:29:16.472Z,925.64
2019-02-24T02:29:29.544Z,925.61
2019-02-24T02:29:42.577Z,925.61
2019-02-24T02:29:55.529Z,925.61
2019-02-24T02:30:08.550Z,925.6
2019-02-24T02:30:21.548Z,925.58
2019-02-24T02:30:34.221Z,925.59
2019-02-24T02:30:47.286Z,925.58
2019-02-24T02:31:00.379Z,925.56
2019-02-24T02:31:12.939Z,925.57
2019-02-24T02:31:25.989Z,925.57
2019-02-24T02:31:39.016Z,925.56
2019-02-24T02:31:51.960Z,925.51
2019-02-24T02:32:05.073Z,925.54
2019-02-24T02:32:18.017Z,925.48
2019-02-24T02:32:31.041Z,925.5
2019-02-24T02:32:44.087Z,925.5
2019-02-24T02:32:56.975Z,925.54
2019-02-24T02:33:09.966Z,925.51
2019-02-24T02:33:23.044Z,925.53
2019-02-24T02:33:36.088Z,925.49
2019-02-24T02:33:49.129Z,925.46
2019-02-24T02:34:02.137Z,925.48
2019-02-24T02:34:15.133Z,925.49
2019-02-24T02:34:28.218Z,925.49
2019-02-24T02:34:41.174Z,925.48
2019-02-24T02:34:54.245Z,925.51
2019-02-24T02:35:07.352Z,925.46
2019-02-24T02:35:20.415Z,925.47
2019-02-24T02:35:33.460Z,925.5
2019-02-24T02:35:45.982Z,925.53
2019-02-24T02:35:58.925Z,925.47
2019-02-24T02:36:12.037Z,925.5
2019-02-24T02:36:24.988Z,925.48
2019-02-24T02:36:37.543Z,925.52
2019-02-24T02:36:50.528Z,925.49
2019-02-24T02:37:03.124Z,925.48
2019-02-24T02:37:16.181Z,925.5
2019-02-24T02:37:29.249Z,925.54
2019-02-24T02:37:42.274Z,925.54
2019-02-24T02:37:54.839Z,925.55
2019-02-24T02:38:07.889Z,925.52
2019-02-24T02:38:20.467Z,925.54
2019-02-24T02:38:33.404Z,925.53
2019-02-24T02:38:46.492Z,925.55
2019-02-24T02:38:59.486Z,925.55
2019-02-24T02:39:12.689Z,925.57
2019-02-24T02:39:25.760Z,925.58
2019-02-24T02:39:38.793Z,925.58
2019-02-24T02:39:51.765Z,925.55
2019-02-24T02:40:04.830Z,925.56
2019-02-24T02:40:17.840Z,925.54
2019-02-24T02:40:30.954Z,925.57
2019-02-24T02:40:43.918Z,925.57
2019-02-24T02:40:56.946Z,925.54
2019-02-24T02:41:09.970Z,925.57
2019-02-24T02:41:22.995Z,925.57
2019-02-24T02:41:36.019Z,925.59
2019-02-24T02:41:49.163Z,925.55
2019-02-24T02:42:02.194Z,925.58
2019-02-24T02:42:15.186Z,925.56
2019-02-24T02:42:28.175Z,925.56
2019-02-24T02:42:41.146Z,925.56
2019-02-24T02:42:54.211Z,925.56
2019-02-24T02:43:07.234Z,925.57
2019-02-24T02:43:20.202Z,925.55
2019-02-24T02:43:33.241Z,925.53
2019-02-24T02:43:46.314Z,925.57